sensor_id;sensor_type;location;lat;lon;timestamp;P1;durP1;ratioP1;P2;durP2;ratioP2
36931;SDS011;22847;42.654;23.370;2022-12-29T00:02:10;55.95;;;28.42;;
36931;SDS011;22847;42.654;23.370;2022-12-29T00:04:37;58.28;;;27.17;;
36931;SDS011;22847;42.654;23.370;2022-12-29T00:07:02;48.47;;;24.00;;
36931;SDS011;22847;42.654;23.370;2022-12-29T00:09:29;44.58;;;22.90;;
36931;SDS011;22847;42.654;23.370;2022-12-29T00:11:55;43.42;;;21.58;;
36931;SDS011;22847;42.654;23.370;2022-12-29T00:14:21;43.20;;;22.73;;
36931;SDS011;22847;42.654;23.370;2022-12-29T00:17:05;42.40;;;19.60;;
36931;SDS011;22847;42.654;23.370;2022-12-29T00:19:30;34.33;;;18.80;;
36931;SDS011;22847;42.654;23.370;2022-12-29T00:22:14;37.08;;;19.10;;
36931;SDS011;22847;42.654;23.370;2022-12-29T00:24:58;35.40;;;18.33;;
36931;SDS011;22847;42.654;23.370;2022-12-29T00:27:29;32.97;;;17.42;;
36931;SDS011;22847;42.654;23.370;2022-12-29T00:30:15;32.60;;;17.90;;
36931;SDS011;22847;42.654;23.370;2022-12-29T00:33:08;29.15;;;16.70;;
36931;SDS011;22847;42.654;23.370;2022-12-29T00:35:58;32.95;;;16.85;;
36931;SDS011;22847;42.654;23.370;2022-12-29T00:38:26;35.75;;;17.58;;
36931;SDS011;22847;42.654;23.370;2022-12-29T00:41:12;31.08;;;15.80;;
36931;SDS011;22847;42.654;23.370;2022-12-29T00:43:57;35.88;;;17.67;;
36931;SDS011;22847;42.654;23.370;2022-12-29T00:46:32;30.10;;;16.10;;
36931;SDS011;22847;42.654;23.370;2022-12-29T00:48:58;33.08;;;17.50;;
36931;SDS011;22847;42.654;23.370;2022-12-29T00:54:08;28.58;;;16.55;;
36931;SDS011;22847;42.654;23.370;2022-12-29T00:56:34;30.52;;;16.58;;
36931;SDS011;22847;42.654;23.370;2022-12-29T00:59:03;33.20;;;17.30;;
36931;SDS011;22847;42.654;23.370;2022-12-29T01:01:30;35.08;;;18.20;;
36931;SDS011;22847;42.654;23.370;2022-12-29T01:03:55;37.83;;;18.63;;
36931;SDS011;22847;42.654;23.370;2022-12-29T01:06:21;34.40;;;16.83;;
36931;SDS011;22847;42.654;23.370;2022-12-29T01:08:48;31.20;;;16.58;;
36931;SDS011;22847;42.654;23.370;2022-12-29T01:11:33;33.72;;;17.23;;
36931;SDS011;22847;42.654;23.370;2022-12-29T01:13:58;35.50;;;17.45;;
36931;SDS011;22847;42.654;23.370;2022-12-29T01:16:24;35.35;;;17.52;;
36931;SDS011;22847;42.654;23.370;2022-12-29T01:18:49;34.97;;;16.90;;
36931;SDS011;22847;42.654;23.370;2022-12-29T01:21:15;28.88;;;15.73;;
36931;SDS011;22847;42.654;23.370;2022-12-29T01:23:40;29.80;;;16.05;;
36931;SDS011;22847;42.654;23.370;2022-12-29T01:26:09;36.30;;;18.10;;
36931;SDS011;22847;42.654;23.370;2022-12-29T01:28:38;34.65;;;18.67;;
36931;SDS011;22847;42.654;23.370;2022-12-29T01:31:05;34.78;;;18.52;;
36931;SDS011;22847;42.654;23.370;2022-12-29T01:33:31;35.22;;;17.90;;
36931;SDS011;22847;42.654;23.370;2022-12-29T01:36:03;39.97;;;19.98;;
36931;SDS011;22847;42.654;23.370;2022-12-29T01:38:30;34.33;;;20.17;;
36931;SDS011;22847;42.654;23.370;2022-12-29T01:40:56;38.13;;;19.13;;
36931;SDS011;22847;42.654;23.370;2022-12-29T01:43:37;37.72;;;19.90;;
36931;SDS011;22847;42.654;23.370;2022-12-29T01:46:04;37.28;;;19.17;;
36931;SDS011;22847;42.654;23.370;2022-12-29T01:48:39;40.88;;;19.08;;
36931;SDS011;22847;42.654;23.370;2022-12-29T01:51:05;34.80;;;18.48;;
36931;SDS011;22847;42.654;23.370;2022-12-29T01:53:31;34.67;;;17.88;;
36931;SDS011;22847;42.654;23.370;2022-12-29T01:56:01;31.65;;;17.65;;
36931;SDS011;22847;42.654;23.370;2022-12-29T01:58:32;40.50;;;19.30;;
36931;SDS011;22847;42.654;23.370;2022-12-29T02:01:03;36.45;;;18.45;;
36931;SDS011;22847;42.654;23.370;2022-12-29T02:03:29;37.08;;;18.92;;
36931;SDS011;22847;42.654;23.370;2022-12-29T02:06:14;37.08;;;18.80;;
36931;SDS011;22847;42.654;23.370;2022-12-29T02:08:44;33.47;;;17.08;;
36931;SDS011;22847;42.654;23.370;2022-12-29T02:11:11;34.25;;;17.65;;
36931;SDS011;22847;42.654;23.370;2022-12-29T02:13:37;29.17;;;17.52;;
36931;SDS011;22847;42.654;23.370;2022-12-29T02:16:14;35.10;;;17.73;;
36931;SDS011;22847;42.654;23.370;2022-12-29T02:27:31;31.52;;;17.27;;
36931;SDS011;22847;42.654;23.370;2022-12-29T02:32:37;38.50;;;18.77;;
36931;SDS011;22847;42.654;23.370;2022-12-29T02:49:49;37.30;;;18.33;;
36931;SDS011;22847;42.654;23.370;2022-12-29T02:52:30;37.40;;;19.15;;
36931;SDS011;22847;42.654;23.370;2022-12-29T02:55:00;35.15;;;19.08;;
36931;SDS011;22847;42.654;23.370;2022-12-29T03:00:05;38.58;;;19.77;;
36931;SDS011;22847;42.654;23.370;2022-12-29T03:10:17;44.83;;;20.42;;
36931;SDS011;22847;42.654;23.370;2022-12-29T03:21:17;47.22;;;22.30;;
36931;SDS011;22847;42.654;23.370;2022-12-29T03:24:10;47.60;;;23.73;;
36931;SDS011;22847;42.654;23.370;2022-12-29T03:26:36;46.80;;;23.13;;
36931;SDS011;22847;42.654;23.370;2022-12-29T03:29:02;44.47;;;23.88;;
36931;SDS011;22847;42.654;23.370;2022-12-29T03:31:31;43.05;;;22.77;;
36931;SDS011;22847;42.654;23.370;2022-12-29T03:33:56;37.40;;;21.00;;
36931;SDS011;22847;42.654;23.370;2022-12-29T03:36:26;39.00;;;20.35;;
36931;SDS011;22847;42.654;23.370;2022-12-29T03:39:02;37.72;;;18.20;;
36931;SDS011;22847;42.654;23.370;2022-12-29T03:41:36;32.85;;;18.13;;
36931;SDS011;22847;42.654;23.370;2022-12-29T03:44:08;31.27;;;16.98;;
36931;SDS011;22847;42.654;23.370;2022-12-29T03:46:34;36.13;;;17.33;;
36931;SDS011;22847;42.654;23.370;2022-12-29T03:48:59;35.88;;;18.50;;
36931;SDS011;22847;42.654;23.370;2022-12-29T03:51:25;38.45;;;18.92;;
36931;SDS011;22847;42.654;23.370;2022-12-29T03:53:50;33.72;;;17.42;;
36931;SDS011;22847;42.654;23.370;2022-12-29T03:56:16;34.05;;;18.75;;
36931;SDS011;22847;42.654;23.370;2022-12-29T03:58:41;29.67;;;16.33;;
36931;SDS011;22847;42.654;23.370;2022-12-29T04:01:06;35.80;;;17.65;;
36931;SDS011;22847;42.654;23.370;2022-12-29T04:03:32;35.00;;;17.75;;
36931;SDS011;22847;42.654;23.370;2022-12-29T04:05:57;38.75;;;19.30;;
36931;SDS011;22847;42.654;23.370;2022-12-29T04:08:23;38.30;;;18.48;;
36931;SDS011;22847;42.654;23.370;2022-12-29T04:10:49;38.90;;;18.15;;
36931;SDS011;22847;42.654;23.370;2022-12-29T04:13:15;35.10;;;18.58;;
36931;SDS011;22847;42.654;23.370;2022-12-29T04:15:41;37.55;;;18.42;;
36931;SDS011;22847;42.654;23.370;2022-12-29T04:18:07;34.58;;;18.38;;
36931;SDS011;22847;42.654;23.370;2022-12-29T04:20:33;34.45;;;18.33;;
36931;SDS011;22847;42.654;23.370;2022-12-29T04:23:17;44.38;;;19.48;;
36931;SDS011;22847;42.654;23.370;2022-12-29T04:25:44;34.85;;;18.25;;
36931;SDS011;22847;42.654;23.370;2022-12-29T04:28:11;37.03;;;18.73;;
36931;SDS011;22847;42.654;23.370;2022-12-29T04:30:36;35.80;;;19.27;;
36931;SDS011;22847;42.654;23.370;2022-12-29T04:33:02;39.05;;;19.80;;
36931;SDS011;22847;42.654;23.370;2022-12-29T04:35:27;32.95;;;17.42;;
36931;SDS011;22847;42.654;23.370;2022-12-29T04:37:52;35.25;;;17.90;;
36931;SDS011;22847;42.654;23.370;2022-12-29T04:40:18;32.40;;;18.17;;
36931;SDS011;22847;42.654;23.370;2022-12-29T04:42:43;38.90;;;19.70;;
36931;SDS011;22847;42.654;23.370;2022-12-29T04:45:09;34.58;;;18.15;;
36931;SDS011;22847;42.654;23.370;2022-12-29T04:47:34;35.85;;;19.13;;
36931;SDS011;22847;42.654;23.370;2022-12-29T04:50:00;35.35;;;19.08;;
36931;SDS011;22847;42.654;23.370;2022-12-29T04:52:25;44.85;;;21.05;;
36931;SDS011;22847;42.654;23.370;2022-12-29T04:54:50;41.17;;;21.98;;
36931;SDS011;22847;42.654;23.370;2022-12-29T04:57:16;41.00;;;20.63;;
36931;SDS011;22847;42.654;23.370;2022-12-29T04:59:41;39.13;;;20.60;;
36931;SDS011;22847;42.654;23.370;2022-12-29T05:02:06;39.63;;;20.73;;
36931;SDS011;22847;42.654;23.370;2022-12-29T05:04:32;44.22;;;21.52;;
36931;SDS011;22847;42.654;23.370;2022-12-29T05:06:57;43.22;;;22.25;;
36931;SDS011;22847;42.654;23.370;2022-12-29T05:09:23;40.08;;;21.13;;
36931;SDS011;22847;42.654;23.370;2022-12-29T05:11:49;42.92;;;22.33;;
36931;SDS011;22847;42.654;23.370;2022-12-29T05:14:14;43.38;;;23.73;;
36931;SDS011;22847;42.654;23.370;2022-12-29T05:16:39;43.30;;;23.02;;
36931;SDS011;22847;42.654;23.370;2022-12-29T05:19:05;45.10;;;23.52;;
36931;SDS011;22847;42.654;23.370;2022-12-29T05:21:30;39.40;;;22.60;;
36931;SDS011;22847;42.654;23.370;2022-12-29T05:23:56;49.20;;;23.90;;
36931;SDS011;22847;42.654;23.370;2022-12-29T05:26:21;44.58;;;22.67;;
36931;SDS011;22847;42.654;23.370;2022-12-29T05:28:46;47.42;;;23.92;;
36931;SDS011;22847;42.654;23.370;2022-12-29T05:31:12;43.95;;;22.60;;
36931;SDS011;22847;42.654;23.370;2022-12-29T05:33:37;47.17;;;23.25;;
36931;SDS011;22847;42.654;23.370;2022-12-29T05:36:03;45.60;;;23.35;;
36931;SDS011;22847;42.654;23.370;2022-12-29T05:38:32;50.42;;;24.73;;
36931;SDS011;22847;42.654;23.370;2022-12-29T05:40:58;47.92;;;24.05;;
36931;SDS011;22847;42.654;23.370;2022-12-29T05:43:23;41.95;;;23.02;;
36931;SDS011;22847;42.654;23.370;2022-12-29T05:45:48;44.13;;;22.80;;
36931;SDS011;22847;42.654;23.370;2022-12-29T05:48:14;47.20;;;23.88;;
36931;SDS011;22847;42.654;23.370;2022-12-29T05:50:40;46.80;;;24.63;;
36931;SDS011;22847;42.654;23.370;2022-12-29T05:53:05;54.80;;;28.15;;
36931;SDS011;22847;42.654;23.370;2022-12-29T05:55:31;53.30;;;28.30;;
36931;SDS011;22847;42.654;23.370;2022-12-29T05:57:56;46.55;;;23.77;;
36931;SDS011;22847;42.654;23.370;2022-12-29T06:00:22;46.65;;;24.00;;
36931;SDS011;22847;42.654;23.370;2022-12-29T06:02:47;52.45;;;24.40;;
36931;SDS011;22847;42.654;23.370;2022-12-29T06:05:13;44.88;;;23.10;;
36931;SDS011;22847;42.654;23.370;2022-12-29T06:07:38;39.47;;;22.02;;
36931;SDS011;22847;42.654;23.370;2022-12-29T06:10:04;48.10;;;23.83;;
36931;SDS011;22847;42.654;23.370;2022-12-29T06:12:30;58.90;;;31.42;;
36931;SDS011;22847;42.654;23.370;2022-12-29T06:14:56;42.97;;;23.60;;
36931;SDS011;22847;42.654;23.370;2022-12-29T06:17:21;43.55;;;23.08;;
36931;SDS011;22847;42.654;23.370;2022-12-29T06:19:46;47.08;;;25.85;;
36931;SDS011;22847;42.654;23.370;2022-12-29T06:22:12;48.85;;;23.83;;
36931;SDS011;22847;42.654;23.370;2022-12-29T06:24:38;48.72;;;24.20;;
36931;SDS011;22847;42.654;23.370;2022-12-29T06:27:03;43.03;;;23.27;;
36931;SDS011;22847;42.654;23.370;2022-12-29T06:29:29;48.70;;;23.88;;
36931;SDS011;22847;42.654;23.370;2022-12-29T06:31:54;44.83;;;25.25;;
36931;SDS011;22847;42.654;23.370;2022-12-29T06:34:23;48.88;;;24.38;;
36931;SDS011;22847;42.654;23.370;2022-12-29T06:36:49;51.35;;;23.52;;
36931;SDS011;22847;42.654;23.370;2022-12-29T06:39:14;44.78;;;23.67;;
36931;SDS011;22847;42.654;23.370;2022-12-29T06:41:40;45.28;;;23.23;;
36931;SDS011;22847;42.654;23.370;2022-12-29T06:44:05;43.45;;;23.38;;
36931;SDS011;22847;42.654;23.370;2022-12-29T06:46:31;44.88;;;24.08;;
36931;SDS011;22847;42.654;23.370;2022-12-29T06:48:56;41.70;;;23.23;;
36931;SDS011;22847;42.654;23.370;2022-12-29T06:51:22;42.95;;;23.30;;
36931;SDS011;22847;42.654;23.370;2022-12-29T06:53:47;47.08;;;25.27;;
36931;SDS011;22847;42.654;23.370;2022-12-29T06:56:12;45.85;;;24.33;;
36931;SDS011;22847;42.654;23.370;2022-12-29T06:58:38;48.15;;;25.75;;
36931;SDS011;22847;42.654;23.370;2022-12-29T07:01:03;45.47;;;25.55;;
36931;SDS011;22847;42.654;23.370;2022-12-29T07:03:29;48.20;;;26.98;;
36931;SDS011;22847;42.654;23.370;2022-12-29T07:05:54;52.40;;;24.58;;
36931;SDS011;22847;42.654;23.370;2022-12-29T07:08:20;45.60;;;25.67;;
36931;SDS011;22847;42.654;23.370;2022-12-29T07:10:45;46.70;;;25.23;;
36931;SDS011;22847;42.654;23.370;2022-12-29T07:13:11;45.60;;;25.08;;
36931;SDS011;22847;42.654;23.370;2022-12-29T07:15:37;39.03;;;23.95;;
36931;SDS011;22847;42.654;23.370;2022-12-29T07:18:03;40.28;;;22.90;;
36931;SDS011;22847;42.654;23.370;2022-12-29T07:20:29;51.63;;;26.42;;
36931;SDS011;22847;42.654;23.370;2022-12-29T07:22:55;55.30;;;26.30;;
36931;SDS011;22847;42.654;23.370;2022-12-29T07:25:20;48.85;;;25.08;;
36931;SDS011;22847;42.654;23.370;2022-12-29T07:27:46;47.17;;;25.27;;
36931;SDS011;22847;42.654;23.370;2022-12-29T07:30:12;39.60;;;23.02;;
36931;SDS011;22847;42.654;23.370;2022-12-29T07:32:37;42.40;;;22.38;;
36931;SDS011;22847;42.654;23.370;2022-12-29T07:35:03;42.00;;;23.48;;
36931;SDS011;22847;42.654;23.370;2022-12-29T07:37:28;38.70;;;23.92;;
36931;SDS011;22847;42.654;23.370;2022-12-29T07:39:54;38.95;;;22.63;;
36931;SDS011;22847;42.654;23.370;2022-12-29T07:42:19;36.75;;;22.55;;
36931;SDS011;22847;42.654;23.370;2022-12-29T07:44:45;37.05;;;23.55;;
36931;SDS011;22847;42.654;23.370;2022-12-29T07:47:10;47.78;;;23.48;;
36931;SDS011;22847;42.654;23.370;2022-12-29T07:49:35;38.53;;;26.50;;
36931;SDS011;22847;42.654;23.370;2022-12-29T07:52:01;38.90;;;22.63;;
36931;SDS011;22847;42.654;23.370;2022-12-29T07:54:26;35.70;;;22.00;;
36931;SDS011;22847;42.654;23.370;2022-12-29T07:56:52;48.22;;;29.77;;
36931;SDS011;22847;42.654;23.370;2022-12-29T07:59:17;40.38;;;25.33;;
36931;SDS011;22847;42.654;23.370;2022-12-29T08:01:42;43.92;;;28.77;;
36931;SDS011;22847;42.654;23.370;2022-12-29T08:04:08;45.13;;;27.23;;
36931;SDS011;22847;42.654;23.370;2022-12-29T08:06:33;39.90;;;24.90;;
36931;SDS011;22847;42.654;23.370;2022-12-29T08:08:59;34.42;;;22.75;;
36931;SDS011;22847;42.654;23.370;2022-12-29T08:11:26;39.50;;;23.35;;
36931;SDS011;22847;42.654;23.370;2022-12-29T08:13:51;44.08;;;24.77;;
36931;SDS011;22847;42.654;23.370;2022-12-29T08:16:17;43.28;;;26.58;;
36931;SDS011;22847;42.654;23.370;2022-12-29T08:18:43;44.20;;;25.00;;
36931;SDS011;22847;42.654;23.370;2022-12-29T08:21:09;44.22;;;25.55;;
36931;SDS011;22847;42.654;23.370;2022-12-29T08:23:34;39.58;;;24.98;;
36931;SDS011;22847;42.654;23.370;2022-12-29T08:26:00;39.33;;;24.55;;
36931;SDS011;22847;42.654;23.370;2022-12-29T08:28:27;43.50;;;25.35;;
36931;SDS011;22847;42.654;23.370;2022-12-29T08:30:54;43.50;;;23.52;;
36931;SDS011;22847;42.654;23.370;2022-12-29T08:33:22;35.60;;;22.92;;
36931;SDS011;22847;42.654;23.370;2022-12-29T08:35:48;40.47;;;23.55;;
36931;SDS011;22847;42.654;23.370;2022-12-29T08:38:13;40.95;;;25.23;;
36931;SDS011;22847;42.654;23.370;2022-12-29T08:40:38;40.55;;;23.85;;
36931;SDS011;22847;42.654;23.370;2022-12-29T08:43:04;46.63;;;27.40;;
36931;SDS011;22847;42.654;23.370;2022-12-29T08:45:30;41.85;;;23.48;;
36931;SDS011;22847;42.654;23.370;2022-12-29T08:47:56;35.70;;;23.02;;
36931;SDS011;22847;42.654;23.370;2022-12-29T08:50:21;37.25;;;25.40;;
36931;SDS011;22847;42.654;23.370;2022-12-29T08:52:46;39.80;;;23.58;;
36931;SDS011;22847;42.654;23.370;2022-12-29T08:55:12;42.22;;;25.40;;
36931;SDS011;22847;42.654;23.370;2022-12-29T08:57:37;45.08;;;24.02;;
36931;SDS011;22847;42.654;23.370;2022-12-29T09:00:03;41.30;;;24.63;;
36931;SDS011;22847;42.654;23.370;2022-12-29T09:02:29;46.38;;;25.02;;
36931;SDS011;22847;42.654;23.370;2022-12-29T09:04:55;38.70;;;23.95;;
36931;SDS011;22847;42.654;23.370;2022-12-29T09:07:22;38.65;;;23.75;;
36931;SDS011;22847;42.654;23.370;2022-12-29T09:09:48;44.20;;;24.60;;
36931;SDS011;22847;42.654;23.370;2022-12-29T09:12:13;50.22;;;25.55;;
36931;SDS011;22847;42.654;23.370;2022-12-29T09:14:39;43.83;;;24.73;;
36931;SDS011;22847;42.654;23.370;2022-12-29T09:17:04;44.58;;;25.60;;
36931;SDS011;22847;42.654;23.370;2022-12-29T09:19:48;39.47;;;24.08;;
36931;SDS011;22847;42.654;23.370;2022-12-29T09:22:13;45.33;;;24.58;;
36931;SDS011;22847;42.654;23.370;2022-12-29T09:24:39;37.67;;;22.92;;
36931;SDS011;22847;42.654;23.370;2022-12-29T09:27:04;42.83;;;22.10;;
36931;SDS011;22847;42.654;23.370;2022-12-29T09:29:29;30.23;;;17.30;;
36931;SDS011;22847;42.654;23.370;2022-12-29T09:31:55;39.85;;;20.17;;
36931;SDS011;22847;42.654;23.370;2022-12-29T09:34:21;31.48;;;18.92;;
36931;SDS011;22847;42.654;23.370;2022-12-29T09:36:46;31.25;;;20.92;;
36931;SDS011;22847;42.654;23.370;2022-12-29T09:39:12;34.10;;;21.10;;
36931;SDS011;22847;42.654;23.370;2022-12-29T09:41:39;38.58;;;20.20;;
36931;SDS011;22847;42.654;23.370;2022-12-29T09:44:20;31.40;;;19.20;;
36931;SDS011;22847;42.654;23.370;2022-12-29T09:46:53;30.40;;;18.60;;
36931;SDS011;22847;42.654;23.370;2022-12-29T09:51:54;45.03;;;23.75;;
36931;SDS011;22847;42.654;23.370;2022-12-29T09:54:31;38.85;;;22.92;;
36931;SDS011;22847;42.654;23.370;2022-12-29T09:57:07;37.30;;;23.55;;
36931;SDS011;22847;42.654;23.370;2022-12-29T09:59:41;35.35;;;23.20;;
36931;SDS011;22847;42.654;23.370;2022-12-29T10:25:10;43.88;;;25.42;;
36931;SDS011;22847;42.654;23.370;2022-12-29T10:27:39;34.20;;;22.23;;
36931;SDS011;22847;42.654;23.370;2022-12-29T10:30:11;42.90;;;23.40;;
36931;SDS011;22847;42.654;23.370;2022-12-29T10:32:39;33.90;;;22.17;;
36931;SDS011;22847;42.654;23.370;2022-12-29T10:35:11;40.28;;;23.00;;
36931;SDS011;22847;42.654;23.370;2022-12-29T10:40:14;42.47;;;26.30;;
36931;SDS011;22847;42.654;23.370;2022-12-29T10:42:46;41.63;;;23.60;;
36931;SDS011;22847;42.654;23.370;2022-12-29T10:45:19;37.95;;;24.15;;
36931;SDS011;22847;42.654;23.370;2022-12-29T10:47:53;39.55;;;23.35;;
36931;SDS011;22847;42.654;23.370;2022-12-29T10:50:22;45.45;;;24.95;;
36931;SDS011;22847;42.654;23.370;2022-12-29T10:52:49;44.90;;;25.23;;
36931;SDS011;22847;42.654;23.370;2022-12-29T10:55:17;44.08;;;26.88;;
36931;SDS011;22847;42.654;23.370;2022-12-29T10:57:48;43.83;;;26.50;;
36931;SDS011;22847;42.654;23.370;2022-12-29T11:00:18;47.70;;;27.92;;
36931;SDS011;22847;42.654;23.370;2022-12-29T11:02:53;45.83;;;25.92;;
36931;SDS011;22847;42.654;23.370;2022-12-29T11:05:37;46.03;;;26.95;;
36931;SDS011;22847;42.654;23.370;2022-12-29T11:08:16;45.17;;;25.58;;
36931;SDS011;22847;42.654;23.370;2022-12-29T11:10:45;45.85;;;25.42;;
36931;SDS011;22847;42.654;23.370;2022-12-29T11:13:13;42.25;;;26.08;;
36931;SDS011;22847;42.654;23.370;2022-12-29T11:15:44;46.40;;;25.80;;
36931;SDS011;22847;42.654;23.370;2022-12-29T11:18:24;49.65;;;27.13;;
36931;SDS011;22847;42.654;23.370;2022-12-29T11:21:03;46.95;;;25.10;;
36931;SDS011;22847;42.654;23.370;2022-12-29T11:23:41;41.85;;;26.48;;
36931;SDS011;22847;42.654;23.370;2022-12-29T11:28:34;46.50;;;27.13;;
36931;SDS011;22847;42.654;23.370;2022-12-29T11:31:01;48.83;;;27.10;;
36931;SDS011;22847;42.654;23.370;2022-12-29T11:33:28;47.33;;;27.35;;
36931;SDS011;22847;42.654;23.370;2022-12-29T11:38:54;47.80;;;24.70;;
36931;SDS011;22847;42.654;23.370;2022-12-29T11:41:24;50.10;;;25.88;;
36931;SDS011;22847;42.654;23.370;2022-12-29T11:43:53;42.47;;;25.70;;
36931;SDS011;22847;42.654;23.370;2022-12-29T11:48:57;42.72;;;25.35;;
36931;SDS011;22847;42.654;23.370;2022-12-29T11:51:27;47.60;;;27.92;;
36931;SDS011;22847;42.654;23.370;2022-12-29T11:53:56;46.70;;;26.15;;
36931;SDS011;22847;42.654;23.370;2022-12-29T11:56:41;43.75;;;27.60;;
36931;SDS011;22847;42.654;23.370;2022-12-29T12:01:51;55.92;;;28.25;;
36931;SDS011;22847;42.654;23.370;2022-12-29T12:04:19;43.95;;;25.40;;
36931;SDS011;22847;42.654;23.370;2022-12-29T12:06:49;48.63;;;25.63;;
36931;SDS011;22847;42.654;23.370;2022-12-29T12:09:22;37.20;;;24.05;;
36931;SDS011;22847;42.654;23.370;2022-12-29T12:12:41;40.45;;;25.05;;
36931;SDS011;22847;42.654;23.370;2022-12-29T12:15:15;56.63;;;26.73;;
36931;SDS011;22847;42.654;23.370;2022-12-29T12:20:25;44.42;;;25.58;;
36931;SDS011;22847;42.654;23.370;2022-12-29T12:28:39;45.20;;;25.63;;
36931;SDS011;22847;42.654;23.370;2022-12-29T12:31:39;42.72;;;24.88;;
36931;SDS011;22847;42.654;23.370;2022-12-29T12:33:59;39.17;;;24.52;;
36931;SDS011;22847;42.654;23.370;2022-12-29T12:36:43;40.78;;;25.00;;
36931;SDS011;22847;42.654;23.370;2022-12-29T12:39:26;44.75;;;25.25;;
36931;SDS011;22847;42.654;23.370;2022-12-29T12:50:29;45.15;;;25.63;;
36931;SDS011;22847;42.654;23.370;2022-12-29T12:53:33;49.42;;;25.13;;
36931;SDS011;22847;42.654;23.370;2022-12-29T13:01:38;51.83;;;25.17;;
36931;SDS011;22847;42.654;23.370;2022-12-29T13:07:04;44.28;;;25.70;;
36931;SDS011;22847;42.654;23.370;2022-12-29T13:12:35;49.03;;;24.55;;
36931;SDS011;22847;42.654;23.370;2022-12-29T13:20:41;50.65;;;26.67;;
36931;SDS011;22847;42.654;23.370;2022-12-29T13:25:54;46.63;;;26.73;;
36931;SDS011;22847;42.654;23.370;2022-12-29T13:28:36;50.92;;;26.77;;
36931;SDS011;22847;42.654;23.370;2022-12-29T13:33:49;47.28;;;25.67;;
36931;SDS011;22847;42.654;23.370;2022-12-29T13:36:25;56.45;;;24.75;;
36931;SDS011;22847;42.654;23.370;2022-12-29T13:39:02;59.17;;;26.98;;
36931;SDS011;22847;42.654;23.370;2022-12-29T13:41:52;46.60;;;26.02;;
36931;SDS011;22847;42.654;23.370;2022-12-29T13:44:35;44.15;;;25.75;;
36931;SDS011;22847;42.654;23.370;2022-12-29T13:49:52;47.72;;;26.35;;
36931;SDS011;22847;42.654;23.370;2022-12-29T13:52:24;49.38;;;25.90;;
36931;SDS011;22847;42.654;23.370;2022-12-29T13:54:57;51.55;;;26.42;;
36931;SDS011;22847;42.654;23.370;2022-12-29T13:58:00;49.60;;;26.60;;
36931;SDS011;22847;42.654;23.370;2022-12-29T14:00:23;50.00;;;26.48;;
36931;SDS011;22847;42.654;23.370;2022-12-29T14:05:42;48.90;;;26.45;;
36931;SDS011;22847;42.654;23.370;2022-12-29T14:08:16;50.28;;;28.08;;
36931;SDS011;22847;42.654;23.370;2022-12-29T14:10:46;55.63;;;28.30;;
36931;SDS011;22847;42.654;23.370;2022-12-29T14:13:18;47.72;;;28.73;;
36931;SDS011;22847;42.654;23.370;2022-12-29T14:15:59;67.60;;;28.48;;
36931;SDS011;22847;42.654;23.370;2022-12-29T14:18:25;63.42;;;28.73;;
36931;SDS011;22847;42.654;23.370;2022-12-29T14:23:28;52.35;;;28.92;;
36931;SDS011;22847;42.654;23.370;2022-12-29T14:26:09;57.28;;;29.33;;
36931;SDS011;22847;42.654;23.370;2022-12-29T14:28:41;61.30;;;28.75;;
36931;SDS011;22847;42.654;23.370;2022-12-29T14:33:39;64.40;;;29.55;;
36931;SDS011;22847;42.654;23.370;2022-12-29T14:36:36;52.10;;;29.80;;
36931;SDS011;22847;42.654;23.370;2022-12-29T14:42:19;52.20;;;27.55;;
36931;SDS011;22847;42.654;23.370;2022-12-29T14:44:56;52.67;;;28.50;;
36931;SDS011;22847;42.654;23.370;2022-12-29T14:47:39;49.75;;;26.70;;
36931;SDS011;22847;42.654;23.370;2022-12-29T14:52:40;56.80;;;25.60;;
36931;SDS011;22847;42.654;23.370;2022-12-29T14:57:42;56.53;;;29.48;;
36931;SDS011;22847;42.654;23.370;2022-12-29T15:00:21;60.83;;;31.67;;
36931;SDS011;22847;42.654;23.370;2022-12-29T15:02:51;67.57;;;31.77;;
36931;SDS011;22847;42.654;23.370;2022-12-29T15:05:29;56.20;;;32.33;;
36931;SDS011;22847;42.654;23.370;2022-12-29T15:07:58;62.15;;;32.05;;
36931;SDS011;22847;42.654;23.370;2022-12-29T15:10:25;66.57;;;31.23;;
36931;SDS011;22847;42.654;23.370;2022-12-29T15:13:00;68.32;;;34.42;;
36931;SDS011;22847;42.654;23.370;2022-12-29T15:15:29;66.80;;;34.35;;
36931;SDS011;22847;42.654;23.370;2022-12-29T15:21:00;69.07;;;36.20;;
36931;SDS011;22847;42.654;23.370;2022-12-29T15:23:31;65.93;;;35.75;;
36931;SDS011;22847;42.654;23.370;2022-12-29T15:26:03;69.68;;;34.78;;
36931;SDS011;22847;42.654;23.370;2022-12-29T15:28:40;70.68;;;35.65;;
36931;SDS011;22847;42.654;23.370;2022-12-29T15:31:21;62.60;;;32.53;;
36931;SDS011;22847;42.654;23.370;2022-12-29T15:33:55;66.18;;;33.20;;
36931;SDS011;22847;42.654;23.370;2022-12-29T15:36:37;64.05;;;31.73;;
36931;SDS011;22847;42.654;23.370;2022-12-29T15:39:46;61.90;;;31.25;;
36931;SDS011;22847;42.654;23.370;2022-12-29T15:41:57;55.35;;;29.58;;
36931;SDS011;22847;42.654;23.370;2022-12-29T15:47:03;63.55;;;30.48;;
36931;SDS011;22847;42.654;23.370;2022-12-29T15:49:30;60.42;;;31.83;;
36931;SDS011;22847;42.654;23.370;2022-12-29T15:51:56;62.22;;;30.15;;
36931;SDS011;22847;42.654;23.370;2022-12-29T15:54:22;58.53;;;27.58;;
36931;SDS011;22847;42.654;23.370;2022-12-29T15:56:48;59.28;;;27.75;;
36931;SDS011;22847;42.654;23.370;2022-12-29T15:59:35;58.50;;;28.80;;
36931;SDS011;22847;42.654;23.370;2022-12-29T16:02:00;56.92;;;28.95;;
36931;SDS011;22847;42.654;23.370;2022-12-29T16:04:28;59.95;;;28.55;;
36931;SDS011;22847;42.654;23.370;2022-12-29T16:07:05;60.28;;;30.02;;
36931;SDS011;22847;42.654;23.370;2022-12-29T16:09:47;55.35;;;28.60;;
36931;SDS011;22847;42.654;23.370;2022-12-29T16:12:19;62.33;;;29.67;;
36931;SDS011;22847;42.654;23.370;2022-12-29T16:14:48;70.78;;;29.38;;
36931;SDS011;22847;42.654;23.370;2022-12-29T16:17:20;54.13;;;28.55;;
36931;SDS011;22847;42.654;23.370;2022-12-29T16:19:49;57.83;;;29.02;;
36931;SDS011;22847;42.654;23.370;2022-12-29T16:22:30;61.42;;;29.77;;
36931;SDS011;22847;42.654;23.370;2022-12-29T16:24:59;64.75;;;28.35;;
36931;SDS011;22847;42.654;23.370;2022-12-29T16:27:39;60.55;;;28.48;;
36931;SDS011;22847;42.654;23.370;2022-12-29T16:30:22;63.72;;;29.15;;
36931;SDS011;22847;42.654;23.370;2022-12-29T16:32:51;42.17;;;20.60;;
36931;SDS011;22847;42.654;23.370;2022-12-29T16:35:22;57.75;;;29.08;;
36931;SDS011;22847;42.654;23.370;2022-12-29T16:40:54;57.65;;;27.67;;
36931;SDS011;22847;42.654;23.370;2022-12-29T16:46:17;57.25;;;30.27;;
36931;SDS011;22847;42.654;23.370;2022-12-29T16:48:47;58.22;;;30.67;;
36931;SDS011;22847;42.654;23.370;2022-12-29T16:54:00;64.60;;;27.98;;
36931;SDS011;22847;42.654;23.370;2022-12-29T16:56:27;56.95;;;28.05;;
36931;SDS011;22847;42.654;23.370;2022-12-29T16:59:06;61.45;;;30.08;;
36931;SDS011;22847;42.654;23.370;2022-12-29T17:01:37;64.07;;;30.40;;
36931;SDS011;22847;42.654;23.370;2022-12-29T17:04:07;62.67;;;31.70;;